Time;durP1;ratioP1;P1;durP2;ratioP2;P2;SDS_P1;SDS_P2;PMS_P1;PMS_P2;Temp;Humidity;BMP_temperature;BMP_pressure;BME280_temperature;BME280_humidity;BME280_pressure;Samples;Min_cycle;Max_cycle;Signal;HPM_P1;HPM_P2
2022/03/27 00:02:24;;;;;;;13.43;8.50;;;;;;;;;;5032048;28;20025;-49
2022/03/27 00:04:50;;;;;;;13.35;7.93;;;;;;;;;;5026123;28;20029;-49
2022/03/27 00:07:17;;;;;;;14.45;8.57;;;;;;;;;;5026730;28;20057;-49
2022/03/27 00:09:43;;;;;;;14.88;9.35;;;;;;;;;;5026486;28;20088;-51
2022/03/27 00:12:09;;;;;;;16.83;10.45;;;;;;;;;;5028896;28;20038;-51
2022/03/27 00:14:35;;;;;;;15.95;9.77;;;;;;;;;;5038389;28;20037;-52
2022/03/27 00:17:02;;;;;;;18.73;11.30;;;;;;;;;;5034177;28;20246;-50
2022/03/27 00:19:28;;;;;;;16.05;10.68;;;;;;;;;;5026434;28;20087;-52
2022/03/27 00:21:55;;;;;;;17.42;11.05;;;;;;;;;;5026701;28;20452;-49
2022/03/27 00:24:21;;;;;;;18.23;11.43;;;;;;;;;;5033768;28;20021;-50
2022/03/27 00:26:48;;;;;;;18.85;11.70;;;;;;;;;;5046126;28;20266;-48
2022/03/27 00:29:16;;;;;;;17.35;11.27;;;;;;;;;;5046405;28;20113;-51
2022/03/27 00:31:44;;;;;;;19.88;12.18;;;;;;;;;;5046247;28;20032;-51
2022/03/27 00:34:11;;;;;;;20.80;12.27;;;;;;;;;;5039051;28;20072;-51
2022/03/27 00:36:37;;;;;;;23.30;13.23;;;;;;;;;;5026027;28;20421;-51
2022/03/27 00:39:04;;;;;;;19.85;11.98;;;;;;;;;;5025990;28;20457;-52
2022/03/27 00:41:30;;;;;;;19.35;11.68;;;;;;;;;;5026290;28;20033;-52
2022/03/27 00:43:57;;;;;;;20.05;11.75;;;;;;;;;;5026428;28;20060;-49
2022/03/27 00:46:23;;;;;;;16.38;10.52;;;;;;;;;;5030525;28;20032;-52
2022/03/27 00:48:49;;;;;;;16.80;10.50;;;;;;;;;;5043889;28;20240;-50
2022/03/27 00:51:16;;;;;;;15.90;9.95;;;;;;;;;;5046096;28;20052;-52
2022/03/27 00:53:42;;;;;;;17.92;11.32;;;;;;;;;;5045493;28;20474;-50
2022/03/27 00:56:08;;;;;;;18.25;11.15;;;;;;;;;;5044117;28;20056;-49
2022/03/27 00:58:34;;;;;;;17.65;11.88;;;;;;;;;;5036665;28;20476;-51
2022/03/27 01:01:05;;;;;;;17.38;11.40;;;;;;;;;;5026426;28;20029;-51
2022/03/27 01:03:31;;;;;;;19.42;11.90;;;;;;;;;;5025297;28;20097;-51
2022/03/27 01:05:58;;;;;;;17.48;10.68;;;;;;;;;;5025378;28;20037;-50
2022/03/27 01:11:12;;;;;;;15.07;10.23;;;;;;;;;;5025896;28;20048;-48
2022/03/27 01:13:42;;;;;;;15.57;10.25;;;;;;;;;;5025737;28;20420;-48
2022/03/27 01:16:16;;;;;;;17.33;11.27;;;;;;;;;;5026666;28;20091;-51
2022/03/27 01:18:43;;;;;;;17.77;11.50;;;;;;;;;;5037864;28;20432;-50
2022/03/27 01:21:09;;;;;;;17.88;11.32;;;;;;;;;;5025312;28;20024;-48
2022/03/27 01:23:36;;;;;;;18.45;11.80;;;;;;;;;;5025997;28;20040;-51
2022/03/27 01:26:03;;;;;;;17.55;11.25;;;;;;;;;;5025291;28;20112;-48
2022/03/27 01:28:29;;;;;;;17.33;11.48;;;;;;;;;;5040867;28;20029;-52
2022/03/27 01:30:56;;;;;;;20.10;12.02;;;;;;;;;;5041025;28;20403;-47
2022/03/27 01:33:23;;;;;;;16.17;9.25;;;;;;;;;;5025006;28;20033;-52
2022/03/27 01:35:49;;;;;;;16.67;9.82;;;;;;;;;;5024938;28;20100;-50
2022/03/27 01:38:15;;;;;;;14.57;9.35;;;;;;;;;;5024842;28;20559;-51
2022/03/27 01:40:41;;;;;;;15.13;9.48;;;;;;;;;;5025115;28;20027;-52
2022/03/27 01:43:08;;;;;;;13.50;8.65;;;;;;;;;;5025632;28;20444;-48
2022/03/27 01:45:34;;;;;;;17.48;11.32;;;;;;;;;;5025419;28;20463;-50
2022/03/27 01:48:01;;;;;;;17.02;10.52;;;;;;;;;;5030942;28;20033;-50
2022/03/27 01:50:27;;;;;;;14.88;9.27;;;;;;;;;;5044988;28;20420;-51
2022/03/27 01:52:53;;;;;;;13.90;8.68;;;;;;;;;;5044850;28;20029;-51
2022/03/27 01:55:19;;;;;;;12.85;8.07;;;;;;;;;;5045106;28;20044;-51
2022/03/27 01:57:46;;;;;;;17.52;8.95;;;;;;;;;;5043263;28;20072;-49
2022/03/27 02:00:14;;;;;;;13.07;8.77;;;;;;;;;;5044874;28;20036;-50
2022/03/27 02:02:40;;;;;;;13.15;7.97;;;;;;;;;;5044135;28;20033;-50
2022/03/27 02:05:07;;;;;;;12.93;8.30;;;;;;;;;;5043776;28;20029;-51
2022/03/27 02:07:37;;;;;;;14.85;8.93;;;;;;;;;;5024983;28;20464;-51
2022/03/27 02:10:06;;;;;;;16.20;8.38;;;;;;;;;;5025543;28;20110;-50
2022/03/27 02:12:34;;;;;;;12.20;7.30;;;;;;;;;;5025216;28;20412;-51
2022/03/27 02:15:01;;;;;;;12.32;7.30;;;;;;;;;;5024499;28;20033;-49
2022/03/27 02:17:27;;;;;;;12.23;8.30;;;;;;;;;;5039910;28;20044;-52
2022/03/27 02:19:53;;;;;;;11.85;7.63;;;;;;;;;;5044549;28;20032;-48
2022/03/27 02:22:20;;;;;;;12.05;7.53;;;;;;;;;;5044235;28;20036;-51
2022/03/27 02:24:46;;;;;;;12.70;8.00;;;;;;;;;;5044145;28;20032;-52
2022/03/27 02:27:12;;;;;;;10.88;7.22;;;;;;;;;;5029707;28;20419;-51
2022/03/27 02:29:38;;;;;;;12.90;7.75;;;;;;;;;;5041327;28;20044;-49
2022/03/27 02:32:05;;;;;;;11.68;7.28;;;;;;;;;;5036631;28;20037;-51
2022/03/27 02:34:31;;;;;;;11.02;7.13;;;;;;;;;;5024411;28;20112;-48
2022/03/27 02:36:57;;;;;;;10.20;6.60;;;;;;;;;;5024349;28;20441;-51
2022/03/27 02:39:24;;;;;;;12.48;6.65;;;;;;;;;;5024361;28;20029;-50
2022/03/27 02:41:50;;;;;;;9.90;6.28;;;;;;;;;;5026342;28;20029;-52
2022/03/27 02:44:16;;;;;;;11.35;6.57;;;;;;;;;;5044269;28;20087;-48
2022/03/27 02:46:42;;;;;;;10.93;7.20;;;;;;;;;;5031771;28;20069;-52
2022/03/27 02:49:09;;;;;;;11.30;6.97;;;;;;;;;;5024739;28;20103;-51
2022/03/27 02:51:35;;;;;;;10.60;6.82;;;;;;;;;;5024528;28;20473;-51
2022/03/27 02:54:02;;;;;;;9.43;6.35;;;;;;;;;;5024514;28;20029;-48
2022/03/27 02:56:28;;;;;;;8.40;5.93;;;;;;;;;;5022690;28;20443;-50
2022/03/27 02:58:54;;;;;;;9.18;6.22;;;;;;;;;;5024576;28;20025;-51
2022/03/27 03:01:20;;;;;;;9.15;5.97;;;;;;;;;;5026349;28;20068;-49
2022/03/27 03:03:47;;;;;;;8.85;6.15;;;;;;;;;;5024543;28;20025;-48
2022/03/27 03:06:13;;;;;;;9.82;6.43;;;;;;;;;;5023005;28;20031;-51
2022/03/27 03:08:39;;;;;;;10.60;6.88;;;;;;;;;;5028155;28;20467;-50
2022/03/27 03:11:05;;;;;;;10.65;5.95;;;;;;;;;;5027908;28;20050;-48
2022/03/27 03:13:32;;;;;;;9.07;6.32;;;;;;;;;;5028842;28;20569;-52
2022/03/27 03:15:58;;;;;;;8.52;6.07;;;;;;;;;;5045549;28;20044;-50
2022/03/27 03:18:25;;;;;;;10.13;6.35;;;;;;;;;;5055323;28;20059;-50
2022/03/27 03:20:52;;;;;;;11.70;6.75;;;;;;;;;;5028888;28;20493;-52
2022/03/27 03:23:18;;;;;;;12.00;7.95;;;;;;;;;;5029769;28;20104;-49
2022/03/27 03:25:44;;;;;;;12.75;8.15;;;;;;;;;;5028966;28;20029;-51
2022/03/27 03:28:10;;;;;;;15.35;9.73;;;;;;;;;;5029231;28;20084;-51
2022/03/27 03:30:36;;;;;;;15.23;9.52;;;;;;;;;;5028860;28;20084;-51
2022/03/27 03:33:03;;;;;;;14.15;9.45;;;;;;;;;;5039488;28;20438;-51
2022/03/27 03:35:29;;;;;;;13.70;8.68;;;;;;;;;;5048508;28;20029;-51
2022/03/27 03:37:55;;;;;;;13.10;8.95;;;;;;;;;;5037690;28;20120;-49
2022/03/27 03:40:23;;;;;;;11.90;7.63;;;;;;;;;;5041119;28;20059;-51
2022/03/27 03:42:49;;;;;;;11.60;7.80;;;;;;;;;;5036196;28;20021;-51
2022/03/27 03:45:15;;;;;;;13.07;8.60;;;;;;;;;;5033682;28;20029;-50
2022/03/27 03:47:41;;;;;;;10.95;6.93;;;;;;;;;;5028471;28;20033;-52
2022/03/27 03:50:09;;;;;;;10.98;7.03;;;;;;;;;;5044133;28;20028;-51
2022/03/27 03:52:35;;;;;;;10.77;7.60;;;;;;;;;;5046912;28;20025;-52
2022/03/27 03:55:02;;;;;;;10.68;7.32;;;;;;;;;;5046942;28;20058;-49
2022/03/27 03:57:29;;;;;;;12.10;7.95;;;;;;;;;;5046697;28;20389;-50
2022/03/27 03:59:55;;;;;;;10.75;7.18;;;;;;;;;;5046580;28;20408;-51
2022/03/27 04:02:21;;;;;;;12.38;8.25;;;;;;;;;;5046707;28;20064;-49
2022/03/27 04:04:47;;;;;;;14.13;9.20;;;;;;;;;;5047021;28;20513;-51
2022/03/27 04:07:14;;;;;;;13.23;8.77;;;;;;;;;;5046659;28;20069;-52
2022/03/27 04:09:40;;;;;;;13.25;8.95;;;;;;;;;;5046041;28;20334;-52
2022/03/27 04:12:07;;;;;;;12.93;8.23;;;;;;;;;;5046812;28;20040;-52
2022/03/27 04:14:36;;;;;;;13.15;8.60;;;;;;;;;;5046280;28;20029;-49
2022/03/27 04:17:05;;;;;;;12.73;8.25;;;;;;;;;;5046445;28;20064;-50
2022/03/27 04:19:32;;;;;;;12.98;8.45;;;;;;;;;;5046223;28;20021;-49
2022/03/27 04:21:59;;;;;;;11.55;8.07;;;;;;;;;;5046528;28;20631;-53
2022/03/27 04:24:25;;;;;;;11.93;8.32;;;;;;;;;;5046708;28;20426;-51
2022/03/27 04:26:51;;;;;;;12.63;7.97;;;;;;;;;;5046195;28;20040;-50
2022/03/27 04:29:17;;;;;;;10.63;7.47;;;;;;;;;;5046555;28;20127;-51
2022/03/27 04:31:43;;;;;;;11.48;7.45;;;;;;;;;;5046076;28;20165;-51
2022/03/27 04:34:10;;;;;;;10.57;6.40;;;;;;;;;;5046311;28;20024;-50
2022/03/27 04:36:36;;;;;;;10.15;6.80;;;;;;;;;;5045671;28;20033;-52
2022/03/27 04:39:03;;;;;;;10.10;7.20;;;;;;;;;;5046197;28;20182;-51
2022/03/27 04:41:29;;;;;;;10.05;6.47;;;;;;;;;;5046102;28;20033;-51
2022/03/27 04:43:56;;;;;;;9.90;6.72;;;;;;;;;;5046000;28;20507;-50
2022/03/27 04:46:23;;;;;;;8.98;6.03;;;;;;;;;;5044683;28;20037;-49
2022/03/27 04:48:49;;;;;;;10.18;6.20;;;;;;;;;;5046059;28;20028;-51
2022/03/27 04:51:16;;;;;;;9.93;6.25;;;;;;;;;;5046458;28;20075;-51
2022/03/27 04:53:42;;;;;;;9.57;5.88;;;;;;;;;;5045480;28;20039;-50
2022/03/27 04:56:10;;;;;;;10.50;6.70;;;;;;;;;;5030251;28;20033;-51
2022/03/27 04:58:36;;;;;;;10.70;7.22;;;;;;;;;;5025639;28;20021;-52
2022/03/27 05:01:03;;;;;;;12.05;7.50;;;;;;;;;;5025228;28;20034;-52
2022/03/27 05:03:29;;;;;;;12.05;7.93;;;;;;;;;;5025615;28;20123;-51
2022/03/27 05:05:57;;;;;;;10.75;6.68;;;;;;;;;;5026018;28;20021;-51
2022/03/27 05:08:23;;;;;;;11.43;7.35;;;;;;;;;;5025955;28;20125;-51
2022/03/27 05:10:49;;;;;;;10.98;7.63;;;;;;;;;;5025744;28;20041;-49
2022/03/27 05:13:17;;;;;;;12.63;8.05;;;;;;;;;;5025721;28;20386;-48
2022/03/27 05:15:43;;;;;;;12.50;8.32;;;;;;;;;;5025284;28;20049;-50
2022/03/27 05:18:10;;;;;;;13.70;9.00;;;;;;;;;;5025508;28;20026;-49
2022/03/27 05:20:39;;;;;;;16.48;9.18;;;;;;;;;;5025418;28;20040;-47
2022/03/27 05:23:05;;;;;;;12.75;8.85;;;;;;;;;;5025631;28;20029;-50
2022/03/27 05:25:40;;;;;;;14.00;9.15;;;;;;;;;;5023921;28;20075;-49
2022/03/27 05:28:07;;;;;;;14.40;8.63;;;;;;;;;;5025469;28;20025;-49
2022/03/27 05:30:34;;;;;;;14.55;9.13;;;;;;;;;;5024908;28;20037;-48
2022/03/27 05:33:03;;;;;;;13.13;8.45;;;;;;;;;;5025622;28;20033;-51
2022/03/27 05:35:29;;;;;;;11.85;8.00;;;;;;;;;;5024811;28;20041;-50
2022/03/27 05:37:55;;;;;;;11.88;7.25;;;;;;;;;;5025080;28;20021;-51
2022/03/27 05:40:22;;;;;;;12.18;7.80;;;;;;;;;;5024339;28;20022;-49
2022/03/27 05:42:49;;;;;;;11.73;7.35;;;;;;;;;;5025564;28;20033;-49
2022/03/27 05:45:16;;;;;;;11.55;7.47;;;;;;;;;;5024999;28;20056;-51
2022/03/27 05:47:42;;;;;;;15.50;8.55;;;;;;;;;;5029336;28;20569;-49
2022/03/27 05:50:09;;;;;;;12.23;7.88;;;;;;;;;;5046048;28;20491;-51
2022/03/27 05:52:35;;;;;;;11.68;7.25;;;;;;;;;;5046600;28;20028;-52
2022/03/27 05:55:01;;;;;;;12.73;7.50;;;;;;;;;;5045178;28;20029;-51
2022/03/27 05:57:28;;;;;;;11.52;6.82;;;;;;;;;;5046012;28;20021;-50
2022/03/27 05:59:54;;;;;;;10.65;7.30;;;;;;;;;;5044550;28;20496;-51
2022/03/27 06:02:20;;;;;;;11.13;7.05;;;;;;;;;;5045949;28;20021;-49
2022/03/27 06:04:47;;;;;;;11.38;6.25;;;;;;;;;;5045741;28;20017;-52
2022/03/27 06:07:13;;;;;;;8.85;6.32;;;;;;;;;;5045570;28;20021;-48
2022/03/27 06:09:39;;;;;;;9.85;5.90;;;;;;;;;;5044833;28;20029;-51
2022/03/27 06:12:06;;;;;;;8.07;5.45;;;;;;;;;;5041956;28;20029;-51
2022/03/27 06:14:32;;;;;;;9.10;5.50;;;;;;;;;;5036077;28;20076;-48
2022/03/27 06:16:59;;;;;;;8.02;5.75;;;;;;;;;;5025692;28;20029;-49
2022/03/27 06:19:26;;;;;;;8.88;5.90;;;;;;;;;;5040101;28;20112;-51
2022/03/27 06:21:52;;;;;;;8.77;5.82;;;;;;;;;;5045920;28;20056;-49
2022/03/27 06:24:18;;;;;;;7.80;5.50;;;;;;;;;;5046536;28;20025;-52
2022/03/27 06:26:44;;;;;;;8.23;5.60;;;;;;;;;;5046064;28;20048;-51
2022/03/27 06:29:11;;;;;;;8.32;5.38;;;;;;;;;;5046208;28;20040;-48
2022/03/27 06:31:38;;;;;;;9.82;6.20;;;;;;;;;;5046032;28;20108;-48
2022/03/27 06:34:05;;;;;;;8.05;5.38;;;;;;;;;;5046316;28;20435;-48
2022/03/27 06:36:32;;;;;;;7.65;5.40;;;;;;;;;;5046022;28;20092;-48
2022/03/27 06:38:58;;;;;;;5.82;4.10;;;;;;;;;;5046134;28;20024;-50
2022/03/27 06:41:24;;;;;;;6.20;4.55;;;;;;;;;;5045450;28;20017;-51
2022/03/27 06:43:50;;;;;;;8.10;5.22;;;;;;;;;;5046519;28;20025;-48
2022/03/27 06:46:17;;;;;;;7.43;4.72;;;;;;;;;;5046854;28;20024;-48
2022/03/27 06:48:45;;;;;;;5.53;3.92;;;;;;;;;;5046120;28;20040;-48
2022/03/27 06:51:13;;;;;;;6.40;4.20;;;;;;;;;;5047719;28;20025;-50
2022/03/27 06:53:39;;;;;;;6.30;4.45;;;;;;;;;;5048403;28;20067;-50
2022/03/27 06:56:06;;;;;;;7.47;4.80;;;;;;;;;;5050031;28;20158;-51
2022/03/27 06:58:33;;;;;;;7.05;4.53;;;;;;;;;;5049663;28;20033;-51
2022/03/27 07:03:45;;;;;;;6.43;4.13;;;;;;;;;;5047679;28;20140;-50
2022/03/27 07:06:14;;;;;;;6.85;4.47;;;;;;;;;;5048600;28;20044;-50
2022/03/27 07:08:41;;;;;;;7.20;4.35;;;;;;;;;;5041616;28;20084;-49
2022/03/27 07:11:07;;;;;;;7.03;4.53;;;;;;;;;;5033227;28;20143;-46
2022/03/27 07:13:34;;;;;;;6.10;4.07;;;;;;;;;;5029086;28;20401;-46
2022/03/27 07:16:00;;;;;;;6.68;4.18;;;;;;;;;;5028441;28;20033;-45
2022/03/27 07:18:29;;;;;;;6.93;4.88;;;;;;;;;;5026782;28;20033;-46
2022/03/27 07:20:55;;;;;;;7.15;5.28;;;;;;;;;;5028378;28;20018;-46
2022/03/27 07:23:22;;;;;;;6.45;4.80;;;;;;;;;;5028309;28;20108;-45
2022/03/27 07:25:52;;;;;;;6.68;5.13;;;;;;;;;;5028647;28;20497;-47
2022/03/27 07:28:21;;;;;;;8.10;5.43;;;;;;;;;;5028622;28;20027;-46
2022/03/27 07:30:48;;;;;;;7.70;5.07;;;;;;;;;;5028579;28;20911;-47
2022/03/27 07:33:14;;;;;;;7.38;5.22;;;;;;;;;;5028330;28;20044;-50
2022/03/27 07:35:41;;;;;;;9.95;6.05;;;;;;;;;;5027590;28;20432;-49
2022/03/27 07:38:07;;;;;;;7.32;4.82;;;;;;;;;;5027822;28;20029;-47
2022/03/27 07:40:34;;;;;;;7.05;4.93;;;;;;;;;;5027869;28;20017;-46
2022/03/27 07:43:00;;;;;;;6.63;4.43;;;;;;;;;;5027626;28;20113;-47
2022/03/27 07:45:28;;;;;;;5.57;4.40;;;;;;;;;;5027711;28;20025;-49
2022/03/27 07:47:54;;;;;;;7.38;4.80;;;;;;;;;;5027624;28;20416;-46
2022/03/27 07:50:21;;;;;;;7.43;4.95;;;;;;;;;;5028192;28;20030;-49
2022/03/27 07:52:47;;;;;;;6.80;5.05;;;;;;;;;;5027799;28;20033;-47
2022/03/27 07:55:17;;;;;;;7.00;5.15;;;;;;;;;;5027587;28;20411;-49
2022/03/27 07:57:44;;;;;;;6.97;4.93;;;;;;;;;;5026723;28;20039;-49
2022/03/27 08:00:16;;;;;;;6.68;4.43;;;;;;;;;;5027583;28;20100;-45
2022/03/27 08:02:43;;;;;;;6.72;4.63;;;;;;;;;;5025855;28;20033;-48
2022/03/27 08:05:10;;;;;;;7.20;5.40;;;;;;;;;;5027496;28;20030;-50
2022/03/27 08:07:36;;;;;;;8.98;4.95;;;;;;;;;;5027219;28;20400;-51
2022/03/27 08:10:03;;;;;;;6.97;4.85;;;;;;;;;;5027109;28;20384;-51
2022/03/27 08:12:30;;;;;;;5.95;4.70;;;;;;;;;;5026991;28;20113;-49
2022/03/27 08:14:56;;;;;;;6.60;4.38;;;;;;;;;;5027116;28;20025;-51
2022/03/27 08:17:23;;;;;;;6.30;4.35;;;;;;;;;;5027089;28;20037;-48
2022/03/27 08:19:49;;;;;;;6.57;4.80;;;;;;;;;;5026096;28;20026;-52
2022/03/27 08:22:16;;;;;;;6.80;4.72;;;;;;;;;;5026975;28;20476;-50
2022/03/27 08:24:42;;;;;;;6.22;4.45;;;;;;;;;;5026565;28;20036;-52
2022/03/27 08:27:08;;;;;;;6.47;4.82;;;;;;;;;;5026777;28;20107;-51
2022/03/27 08:29:35;;;;;;;6.68;5.03;;;;;;;;;;5026498;28;20022;-50
2022/03/27 08:32:03;;;;;;;7.15;4.78;;;;;;;;;;5026798;28;20030;-52
2022/03/27 08:34:30;;;;;;;6.13;4.53;;;;;;;;;;5027502;28;20123;-52
2022/03/27 08:36:57;;;;;;;7.28;5.25;;;;;;;;;;5028150;28;20029;-52
2022/03/27 08:39:24;;;;;;;7.65;5.05;;;;;;;;;;5028297;28;20152;-49
2022/03/27 08:41:51;;;;;;;6.68;5.00;;;;;;;;;;5027878;28;20029;-49
2022/03/27 08:44:19;;;;;;;5.68;3.90;;;;;;;;;;5033786;28;20022;-50
2022/03/27 08:46:46;;;;;;;6.50;4.43;;;;;;;;;;5046312;28;20033;-50
2022/03/27 08:58:27;;;;;;;5.90;4.10;;;;;;;;;;5039673;28;20044;-49
2022/03/27 09:00:54;;;;;;;5.30;4.30;;;;;;;;;;5040835;28;20067;-50
2022/03/27 09:03:21;;;;;;;4.63;3.72;;;;;;;;;;5044469;28;20427;-51
2022/03/27 09:05:47;;;;;;;5.15;3.97;;;;;;;;;;5048660;28;20522;-51
2022/03/27 09:08:13;;;;;;;5.28;4.03;;;;;;;;;;5045790;28;20039;-50
2022/03/27 09:10:43;;;;;;;5.07;3.80;;;;;;;;;;5038842;28;20068;-50
2022/03/27 09:13:13;;;;;;;4.53;3.13;;;;;;;;;;5048843;28;20507;-51
2022/03/27 09:15:39;;;;;;;3.70;3.00;;;;;;;;;;5029116;28;20420;-50
2022/03/27 09:18:08;;;;;;;4.82;3.63;;;;;;;;;;5028626;28;20049;-49
2022/03/27 09:20:36;;;;;;;5.10;3.20;;;;;;;;;;5028650;28;20497;-49
2022/03/27 09:23:23;;;;;;;5.20;3.15;;;;;;;;;;5040961;28;20029;-50
2022/03/27 09:25:56;;;;;;;4.72;3.60;;;;;;;;;;5028252;28;20030;-49
2022/03/27 09:28:25;;;;;;;5.57;3.57;;;;;;;;;;5028566;28;20037;-49
2022/03/27 09:30:52;;;;;;;4.43;2.95;;;;;;;;;;5027947;28;20255;-50
2022/03/27 09:33:33;;;;;;;4.22;3.17;;;;;;;;;;5028271;28;20120;-48
2022/03/27 09:36:09;;;;;;;3.83;2.78;;;;;;;;;;5038161;28;20033;-49
2022/03/27 09:38:36;;;;;;;3.92;2.90;;;;;;;;;;5031424;28;20408;-48
2022/03/27 09:41:03;;;;;;;4.25;2.85;;;;;;;;;;5041861;28;20025;-47
2022/03/27 09:43:29;;;;;;;6.47;3.80;;;;;;;;;;5028295;28;20037;-47
2022/03/27 09:45:57;;;;;;;3.55;2.78;;;;;;;;;;5032974;28;20029;-49
2022/03/27 09:48:23;;;;;;;3.05;2.30;;;;;;;;;;5044297;28;20061;-48
2022/03/27 09:50:51;;;;;;;2.72;2.30;;;;;;;;;;5047787;28;20523;-47
2022/03/27 09:53:26;;;;;;;2.42;1.77;;;;;;;;;;5044513;28;20084;-48
2022/03/27 09:55:59;;;;;;;3.88;2.65;;;;;;;;;;5032571;28;20041;-47
2022/03/27 09:58:38;;;;;;;3.90;3.00;;;;;;;;;;5048526;28;20472;-47
2022/03/27 10:01:11;;;;;;;3.30;2.50;;;;;;;;;;5048461;28;20027;-48
2022/03/27 10:03:38;;;;;;;4.13;2.85;;;;;;;;;;5036405;28;20025;-47
2022/03/27 10:06:04;;;;;;;3.45;2.67;;;;;;;;;;5028126;28;20059;-47
2022/03/27 10:08:30;;;;;;;3.30;2.35;;;;;;;;;;5028646;28;20040;-47
2022/03/27 10:11:01;;;;;;;4.40;2.92;;;;;;;;;;5027765;28;20056;-51
2022/03/27 10:13:29;;;;;;;3.85;2.55;;;;;;;;;;5028143;28;20037;-48
2022/03/27 10:15:59;;;;;;;4.82;3.00;;;;;;;;;;5028102;28;20038;-52
2022/03/27 10:18:25;;;;;;;5.43;3.80;;;;;;;;;;5027974;28;20216;-51
2022/03/27 10:20:55;;;;;;;5.25;3.50;;;;;;;;;;5027490;28;20014;-51
2022/03/27 10:23:26;;;;;;;4.97;3.42;;;;;;;;;;5027718;28;20126;-49
2022/03/27 10:25:59;;;;;;;4.85;3.10;;;;;;;;;;5036579;28;20039;-50
2022/03/27 10:28:26;;;;;;;3.47;2.38;;;;;;;;;;5047769;28;20033;-51
2022/03/27 10:30:53;;;;;;;3.08;2.35;;;;;;;;;;5046528;28;20033;-48
2022/03/27 10:33:21;;;;;;;2.72;2.17;;;;;;;;;;5046667;28;20060;-49
2022/03/27 10:36:00;;;;;;;2.30;1.90;;;;;;;;;;5047330;28;20037;-52
2022/03/27 10:38:46;;;;;;;2.67;2.15;;;;;;;;;;5047517;28;20040;-52
2022/03/27 10:41:31;;;;;;;4.10;2.30;;;;;;;;;;5047055;28;20048;-50
2022/03/27 10:44:03;;;;;;;5.07;3.08;;;;;;;;;;5048029;28;20363;-50
2022/03/27 10:46:30;;;;;;;7.80;4.40;;;;;;;;;;5040801;28;20029;-50
2022/03/27 10:49:12;;;;;;;6.90;4.55;;;;;;;;;;5038215;28;20531;-50
2022/03/27 10:51:39;;;;;;;7.15;4.15;;;;;;;;;;5047234;28;20440;-49
2022/03/27 10:54:08;;;;;;;5.65;3.85;;;;;;;;;;5034513;28;20087;-49
2022/03/27 10:56:39;;;;;;;5.07;3.33;;;;;;;;;;5028035;28;20041;-50
2022/03/27 10:59:09;;;;;;;5.63;3.47;;;;;;;;;;5045403;28;20029;-51
2022/03/27 11:01:40;;;;;;;3.30;2.60;;;;;;;;;;5037359;28;20105;-50
2022/03/27 11:04:06;;;;;;;3.10;2.35;;;;;;;;;;5041761;28;20021;-51
2022/03/27 11:06:35;;;;;;;3.50;2.35;;;;;;;;;;5035567;28;20501;-52
2022/03/27 11:09:03;;;;;;;2.95;2.42;;;;;;;;;;5021948;28;20318;-48
2022/03/27 11:11:38;;;;;;;4.30;2.92;;;;;;;;;;5020922;28;20687;-48
2022/03/27 11:14:05;;;;;;;3.35;2.72;;;;;;;;;;5021578;28;20033;-48
2022/03/27 11:16:33;;;;;;;3.72;2.17;;;;;;;;;;5021191;28;20412;-50
2022/03/27 11:18:59;;;;;;;3.38;2.60;;;;;;;;;;5022009;28;20516;-48
2022/03/27 11:21:29;;;;;;;3.38;2.33;;;;;;;;;;5020976;28;20021;-50
2022/03/27 11:24:01;;;;;;;3.67;2.45;;;;;;;;;;5022238;28;20032;-52
2022/03/27 11:26:29;;;;;;;3.63;2.90;;;;;;;;;;5021781;28;20048;-51
2022/03/27 11:29:04;;;;;;;4.95;3.08;;;;;;;;;;5021746;28;20721;-51
2022/03/27 11:31:32;;;;;;;4.22;3.30;;;;;;;;;;5037855;28;20187;-49
2022/03/27 11:34:17;;;;;;;4.53;3.45;;;;;;;;;;5040700;28;20041;-50
2022/03/27 11:36:44;;;;;;;4.95;3.78;;;;;;;;;;5041550;28;20039;-49
2022/03/27 11:39:12;;;;;;;4.22;2.65;;;;;;;;;;5044243;28;20029;-48
2022/03/27 11:41:44;;;;;;;4.60;3.17;;;;;;;;;;5027537;28;20025;-52
2022/03/27 11:44:16;;;;;;;4.47;2.85;;;;;;;;;;5030753;28;20029;-49
2022/03/27 11:46:44;;;;;;;4.90;3.03;;;;;;;;;;5029239;28;20351;-50
2022/03/27 11:49:11;;;;;;;4.00;3.22;;;;;;;;;;5027172;28;20319;-47
2022/03/27 11:51:38;;;;;;;5.57;3.25;;;;;;;;;;5028111;28;20511;-49
2022/03/27 11:54:16;;;;;;;4.43;3.42;;;;;;;;;;5028950;28;20117;-47
2022/03/27 11:56:59;;;;;;;4.30;3.13;;;;;;;;;;5029398;28;20040;-45
2022/03/27 11:59:26;;;;;;;4.38;2.78;;;;;;;;;;5027087;28;20037;-49
2022/03/27 12:01:53;;;;;;;4.22;3.00;;;;;;;;;;5026960;28;20033;-50
2022/03/27 12:04:19;;;;;;;6.57;4.80;;;;;;;;;;5029113;28;20644;-50
2022/03/27 12:06:46;;;;;;;6.00;4.40;;;;;;;;;;5028363;28;20298;-52
2022/03/27 12:09:33;;;;;;;7.60;4.97;;;;;;;;;;5026884;28;20040;-52
2022/03/27 12:12:06;;;;;;;6.15;4.68;;;;;;;;;;5027276;28;20086;-50
2022/03/27 12:14:34;;;;;;;6.28;4.50;;;;;;;;;;5028337;28;20047;-47
2022/03/27 12:17:00;;;;;;;5.80;4.43;;;;;;;;;;5028941;28;20094;-47
2022/03/27 12:19:26;;;;;;;4.72;3.55;;;;;;;;;;5027548;28;20044;-49
2022/03/27 12:21:53;;;;;;;4.50;3.50;;;;;;;;;;5028042;28;20025;-47
2022/03/27 12:24:19;;;;;;;5.82;3.72;;;;;;;;;;5028295;28;20144;-46
2022/03/27 12:32:21;;;;;;;5.55;3.95;;;;;;;;;;5028530;28;20182;-48
2022/03/27 12:34:49;;;;;;;5.32;3.75;;;;;;;;;;5028574;28;20040;-47
2022/03/27 12:37:18;;;;;;;4.35;3.20;;;;;;;;;;5028665;28;20029;-49
2022/03/27 12:39:47;;;;;;;4.35;3.45;;;;;;;;;;5026192;28;20060;-50
2022/03/27 12:42:35;;;;;;;3.80;3.10;;;;;;;;;;5026885;28;20021;-47
2022/03/27 12:45:03;;;;;;;6.78;4.68;;;;;;;;;;5028773;28;20451;-46
2022/03/27 12:47:37;;;;;;;7.78;5.05;;;;;;;;;;5028051;28;20033;-50
2022/03/27 12:50:04;;;;;;;6.53;4.47;;;;;;;;;;5024941;28;20560;-48
2022/03/27 12:52:30;;;;;;;5.93;3.92;;;;;;;;;;5033945;28;20051;-50
2022/03/27 12:55:01;;;;;;;6.18;4.22;;;;;;;;;;5032419;28;20033;-47
2022/03/27 12:57:46;;;;;;;6.70;4.70;;;;;;;;;;5039267;28;20033;-48
2022/03/27 13:00:13;;;;;;;6.65;5.10;;;;;;;;;;5031898;28;20029;-47
2022/03/27 13:02:39;;;;;;;7.03;5.00;;;;;;;;;;5031772;28;20071;-48
2022/03/27 13:05:05;;;;;;;5.35;4.25;;;;;;;;;;5029858;28;20094;-50
2022/03/27 13:08:10;;;;;;;5.47;4.07;;;;;;;;;;5032306;28;20033;-48
2022/03/27 13:10:39;;;;;;;5.32;3.80;;;;;;;;;;5038178;28;20189;-47
2022/03/27 13:13:07;;;;;;;4.65;3.38;;;;;;;;;;5039088;28;20579;-46
2022/03/27 13:15:36;;;;;;;5.10;3.45;;;;;;;;;;5032332;28;20049;-48
2022/03/27 13:18:10;;;;;;;4.63;3.45;;;;;;;;;;5030833;28;20040;-53
2022/03/27 13:20:37;;;;;;;4.65;3.33;;;;;;;;;;5032618;28;20060;-46
2022/03/27 13:23:04;;;;;;;5.00;3.60;;;;;;;;;;5034481;28;20599;-48
2022/03/27 13:25:31;;;;;;;7.07;4.68;;;;;;;;;;5027871;28;20036;-48
2022/03/27 13:27:57;;;;;;;5.38;4.00;;;;;;;;;;5031327;28;20400;-46
2022/03/27 13:30:24;;;;;;;5.88;4.30;;;;;;;;;;5033263;28;20611;-47
2022/03/27 13:32:50;;;;;;;4.55;3.65;;;;;;;;;;5038974;28;20440;-47
2022/03/27 13:35:17;;;;;;;7.22;5.07;;;;;;;;;;5040986;28;20028;-47
2022/03/27 13:37:45;;;;;;;6.95;5.13;;;;;;;;;;5035753;28;20033;-45
2022/03/27 13:40:12;;;;;;;6.50;5.03;;;;;;;;;;5043237;28;20154;-48
2022/03/27 13:45:23;;;;;;;5.57;4.20;;;;;;;;;;5031447;28;20324;-48
2022/03/27 13:47:49;;;;;;;5.53;4.00;;;;;;;;;;5030361;28;20393;-49
2022/03/27 13:50:15;;;;;;;5.63;3.92;;;;;;;;;;5029635;28;20162;-47
2022/03/27 13:52:41;;;;;;;5.93;4.28;;;;;;;;;;5030442;28;20041;-49
2022/03/27 13:55:08;;;;;;;6.13;4.63;;;;;;;;;;5029986;28;20045;-49
2022/03/27 13:57:34;;;;;;;5.45;4.45;;;;;;;;;;5032543;28;20029;-45
2022/03/27 14:00:01;;;;;;;7.32;5.18;;;;;;;;;;5032539;28;20033;-47
2022/03/27 14:02:28;;;;;;;7.82;5.68;;;;;;;;;;5037164;28;20033;-48
2022/03/27 14:04:57;;;;;;;6.70;5.10;;;;;;;;;;5030560;28;20029;-46
2022/03/27 14:07:23;;;;;;;9.27;6.13;;;;;;;;;;5031404;28;20531;-48
2022/03/27 14:09:49;;;;;;;6.25;5.05;;;;;;;;;;5029066;28;20041;-46
2022/03/27 14:12:15;;;;;;;10.98;6.78;;;;;;;;;;5030367;28;20036;-50
2022/03/27 14:14:42;;;;;;;6.65;5.07;;;;;;;;;;5030483;28;20626;-47
2022/03/27 14:17:08;;;;;;;5.85;4.80;;;;;;;;;;5032574;28;20037;-50
2022/03/27 14:19:35;;;;;;;6.45;4.38;;;;;;;;;;5030315;28;20032;-50
2022/03/27 14:22:02;;;;;;;5.88;4.65;;;;;;;;;;5031758;28;20041;-47
2022/03/27 14:24:29;;;;;;;5.93;4.55;;;;;;;;;;5030268;28;20040;-51
2022/03/27 14:26:55;;;;;;;6.38;4.95;;;;;;;;;;5032397;28;20230;-48
2022/03/27 14:29:22;;;;;;;6.85;4.93;;;;;;;;;;5031532;28;20029;-50
2022/03/27 14:31:52;;;;;;;7.82;5.28;;;;;;;;;;5029531;28;20036;-51
2022/03/27 14:34:21;;;;;;;5.30;4.20;;;;;;;;;;5031209;28;20897;-50
2022/03/27 14:36:47;;;;;;;6.43;4.82;;;;;;;;;;5029520;28;20033;-49
2022/03/27 14:39:14;;;;;;;5.93;4.28;;;;;;;;;;5028258;28;20031;-50
2022/03/27 14:41:41;;;;;;;5.30;4.22;;;;;;;;;;5030969;28;20041;-50
2022/03/27 14:44:07;;;;;;;5.97;4.53;;;;;;;;;;5033587;28;20041;-50
2022/03/27 14:46:37;;;;;;;4.80;3.50;;;;;;;;;;5028340;28;20562;-50
2022/03/27 14:49:03;;;;;;;5.40;4.00;;;;;;;;;;5027155;28;20076;-49
2022/03/27 14:51:30;;;;;;;8.30;4.18;;;;;;;;;;5025494;28;20037;-51
2022/03/27 14:56:41;;;;;;;5.72;4.35;;;;;;;;;;5031070;28;20050;-50
2022/03/27 14:59:08;;;;;;;8.15;4.28;;;;;;;;;;5029480;28;20029;-52
2022/03/27 15:01:34;;;;;;;5.18;3.83;;;;;;;;;;5032723;28;20033;-50
2022/03/27 15:04:01;;;;;;;6.00;4.50;;;;;;;;;;5031889;28;20040;-53
2022/03/27 15:06:27;;;;;;;5.47;4.40;;;;;;;;;;5031955;28;20056;-48